Time;durP1;ratioP1;P1;durP2;ratioP2;P2;SDS_P1;SDS_P2;PMS_P1;PMS_P2;Temp;Humidity;BMP_temperature;BMP_pressure;BME280_temperature;BME280_humidity;BME280_pressure;Samples;Min_cycle;Max_cycle;Signal;HPM_P1;HPM_P2
2021/03/24 00:00:46;;;;;;;14.10;10.13;;;;;;;0.37;69.02;97303.84;5072782;28;20041;-71
2021/03/24 00:03:13;;;;;;;13.80;9.55;;;;;;;0.34;68.45;97296.38;5062583;28;20040;-71
2021/03/24 00:05:45;;;;;;;13.43;10.70;;;;;;;0.33;68.54;97292.94;5073861;28;20045;-71
2021/03/24 00:08:12;;;;;;;15.48;10.10;;;;;;;0.31;68.56;97297.44;5073481;28;20039;-71
2021/03/24 00:10:38;;;;;;;18.80;11.30;;;;;;;0.30;68.58;97300.16;5073185;28;20051;-71
2021/03/24 00:13:06;;;;;;;17.38;10.20;;;;;;;0.28;68.55;97292.56;5073393;28;20385;-71
2021/03/24 00:15:34;;;;;;;15.60;10.15;;;;;;;0.23;68.49;97292.09;5073808;28;20053;-71
2021/03/24 00:18:01;;;;;;;17.83;11.07;;;;;;;0.20;68.52;97292.38;5073375;28;20048;-71
2021/03/24 00:20:31;;;;;;;17.70;10.88;;;;;;;0.17;68.79;97298.63;5073571;28;20405;-71
2021/03/24 00:22:57;;;;;;;20.67;11.27;;;;;;;0.15;68.81;97300.53;5073362;28;20472;-71
2021/03/24 00:25:24;;;;;;;15.50;10.65;;;;;;;0.15;68.78;97302.28;5074113;28;20047;-71
2021/03/24 00:27:51;;;;;;;17.33;11.38;;;;;;;0.14;68.54;97300.66;5073515;28;20028;-71
2021/03/24 00:30:23;;;;;;;17.98;11.63;;;;;;;0.10;68.77;97292.34;5073492;28;20052;-71
2021/03/24 00:32:49;;;;;;;16.80;11.00;;;;;;;0.06;68.86;97292.75;5073247;28;20043;-71
2021/03/24 00:35:15;;;;;;;18.70;11.45;;;;;;;0.02;68.84;97291.38;5073376;28;20036;-71
2021/03/24 00:37:42;;;;;;;19.48;11.57;;;;;;;0.00;68.95;97301.84;5072829;28;20499;-71
2021/03/24 00:40:14;;;;;;;19.38;10.88;;;;;;;-0.04;69.00;97285.81;5073327;28;20051;-71
2021/03/24 00:42:40;;;;;;;16.98;10.95;;;;;;;-0.02;69.03;97290.84;5073550;28;20044;-71
2021/03/24 00:45:08;;;;;;;16.88;11.48;;;;;;;-0.06;69.08;97285.13;5073045;28;20041;-71
2021/03/24 00:47:34;;;;;;;15.68;11.30;;;;;;;-0.07;69.21;97285.25;5072904;28;20400;-72
2021/03/24 00:50:01;;;;;;;16.17;11.20;;;;;;;-0.09;69.18;97282.78;5073399;28;20461;-71
2021/03/24 00:52:27;;;;;;;15.15;10.63;;;;;;;-0.11;69.22;97274.38;5072886;28;20457;-71
2021/03/24 00:54:53;;;;;;;18.38;11.88;;;;;;;-0.13;69.23;97278.84;5073260;28;20037;-71
2021/03/24 00:57:19;;;;;;;15.55;11.30;;;;;;;-0.13;69.21;97280.59;5073171;28;20047;-71
2021/03/24 00:59:46;;;;;;;16.80;12.15;;;;;;;-0.17;69.30;97282.63;5073075;28;20043;-71
2021/03/24 01:02:12;;;;;;;17.25;11.32;;;;;;;-0.18;69.20;97290.50;5073352;28;20469;-71
2021/03/24 01:04:38;;;;;;;19.15;11.75;;;;;;;-0.21;69.39;97294.13;5072756;28;20057;-72
2021/03/24 01:07:07;;;;;;;16.90;11.40;;;;;;;-0.24;69.55;97277.16;5072853;28;20033;-71
2021/03/24 01:09:33;;;;;;;17.80;10.88;;;;;;;-0.26;69.35;97279.06;5072458;28;20405;-71
2021/03/24 01:12:00;;;;;;;19.55;12.27;;;;;;;-0.28;69.70;97277.56;5072711;28;20040;-71
2021/03/24 01:14:26;;;;;;;18.35;11.68;;;;;;;-0.30;69.51;97280.25;5072964;28;20043;-71
2021/03/24 01:16:52;;;;;;;19.13;11.50;;;;;;;-0.30;69.70;97274.28;5072921;28;20053;-71
2021/03/24 01:19:18;;;;;;;15.70;11.18;;;;;;;-0.31;69.67;97273.50;5072545;28;20174;-71
2021/03/24 01:21:44;;;;;;;15.45;11.00;;;;;;;-0.31;69.70;97273.50;5072781;28;20036;-71
2021/03/24 01:24:11;;;;;;;14.73;10.75;;;;;;;-0.31;69.83;97268.34;5071737;28;20032;-72
2021/03/24 01:26:37;;;;;;;15.23;10.88;;;;;;;-0.31;69.95;97273.50;5072954;28;20045;-71
2021/03/24 01:29:05;;;;;;;17.35;10.82;;;;;;;-0.31;69.83;97264.94;5072807;28;20457;-71
2021/03/24 01:31:32;;;;;;;18.73;10.68;;;;;;;-0.31;69.86;97262.38;5072667;28;20051;-71
2021/03/24 01:34:00;;;;;;;15.27;11.35;;;;;;;-0.34;69.86;97263.41;5072614;28;20041;-72
2021/03/24 01:36:28;;;;;;;14.38;10.50;;;;;;;-0.39;69.77;97259.63;5062800;28;20047;-71
2021/03/24 01:38:55;;;;;;;13.98;9.88;;;;;;;-0.42;69.87;97258.94;5072674;28;20060;-71
2021/03/24 01:41:23;;;;;;;16.38;10.90;;;;;;;-0.43;69.86;97266.78;5072677;28;20047;-71
2021/03/24 01:44:08;;;;;;;16.10;10.70;;;;;;;-0.46;69.98;97264.47;5075536;28;20039;-71
2021/03/24 01:46:37;;;;;;;14.38;10.40;;;;;;;-0.48;70.06;97258.63;5076539;28;20036;-71
2021/03/24 01:49:15;;;;;;;14.07;10.77;;;;;;;-0.51;70.30;97256.28;5075023;28;20059;-71
2021/03/24 01:51:49;;;;;;;13.55;10.18;;;;;;;-0.55;70.08;97254.91;5076534;28;20396;-71
2021/03/24 01:54:33;;;;;;;14.25;10.38;;;;;;;-0.58;70.32;97255.19;5076138;28;20033;-71
2021/03/24 01:57:03;;;;;;;16.30;9.77;;;;;;;-0.58;70.17;97252.63;5076226;28;20044;-71
2021/03/24 01:59:29;;;;;;;12.63;9.60;;;;;;;-0.59;70.16;97250.97;5076097;28;20032;-71
2021/03/24 02:01:56;;;;;;;13.85;9.70;;;;;;;-0.61;70.02;97251.09;5076344;28;20381;-71
2021/03/24 02:04:23;;;;;;;14.70;10.75;;;;;;;-0.64;70.22;97259.91;5076019;28;20044;-71
2021/03/24 02:06:55;;;;;;;20.15;11.10;;;;;;;-0.66;70.28;97253.25;5076018;28;20063;-71
2021/03/24 02:09:46;;;;;;;15.20;9.70;;;;;;;-0.68;70.58;97257.69;5075689;28;20366;-71
2021/03/24 02:12:18;;;;;;;13.48;9.85;;;;;;;-0.72;70.10;97244.25;5075646;28;20460;-71
2021/03/24 02:15:03;;;;;;;17.10;10.10;;;;;;;-0.71;70.73;97245.91;5076225;28;20052;-71
2021/03/24 02:17:34;;;;;;;20.50;10.18;;;;;;;-0.72;70.34;97238.28;5064831;28;20044;-71
2021/03/24 02:20:06;;;;;;;12.68;9.13;;;;;;;-0.72;70.36;97246.03;5075706;28;20057;-71
2021/03/24 02:22:38;;;;;;;17.15;9.32;;;;;;;-0.73;70.11;97249.56;5075952;28;20036;-71
2021/03/24 02:25:04;;;;;;;15.13;10.93;;;;;;;-0.73;70.34;97241.81;5075734;28;20032;-71
2021/03/24 02:27:35;;;;;;;14.27;10.70;;;;;;;-0.76;70.45;97245.44;5075395;28;20036;-71
2021/03/24 02:30:08;;;;;;;12.65;9.70;;;;;;;-0.77;70.47;97241.25;5075447;28;20487;-71
2021/03/24 02:32:39;;;;;;;13.67;10.10;;;;;;;-0.80;70.29;97232.97;5075298;28;20048;-72
2021/03/24 02:35:14;;;;;;;14.88;10.57;;;;;;;-0.84;70.76;97230.66;5075956;28;20504;-71
2021/03/24 02:37:41;;;;;;;16.73;10.57;;;;;;;-0.87;70.33;97235.22;5075495;28;20401;-71
2021/03/24 02:40:13;;;;;;;20.05;10.95;;;;;;;-0.92;70.51;97235.63;5075509;28;20397;-71
2021/03/24 02:42:42;;;;;;;14.57;10.43;;;;;;;-0.92;70.34;97242.53;5075782;28;20040;-71
2021/03/24 02:45:12;;;;;;;14.55;10.00;;;;;;;-0.93;70.67;97252.00;5074997;28;20040;-71
2021/03/24 02:47:41;;;;;;;15.90;10.80;;;;;;;-0.95;70.23;97245.34;5075275;28;20055;-71
2021/03/24 02:50:09;;;;;;;14.88;10.48;;;;;;;-0.95;70.44;97243.56;5074381;28;20037;-72
2021/03/24 02:52:36;;;;;;;15.43;10.40;;;;;;;-0.94;70.64;97245.22;5075152;28;20039;-72
2021/03/24 02:55:05;;;;;;;17.13;11.10;;;;;;;-0.95;70.59;97253.88;5074060;28;20048;-71
2021/03/24 02:57:32;;;;;;;15.90;10.73;;;;;;;-0.96;70.49;97252.25;5074888;28;20393;-71
2021/03/24 02:59:58;;;;;;;20.45;11.23;;;;;;;-0.97;70.62;97255.75;5075030;28;20045;-71
2021/03/24 03:02:27;;;;;;;16.23;10.77;;;;;;;-0.98;70.86;97248.19;5075025;28;20041;-71
2021/03/24 03:05:05;;;;;;;12.73;9.02;;;;;;;-1.02;70.48;97252.75;5058341;28;20045;-71
2021/03/24 03:07:36;;;;;;;13.57;10.18;;;;;;;-1.04;70.92;97255.44;5075703;28;20055;-71
2021/03/24 03:10:31;;;;;;;14.40;10.00;;;;;;;-1.06;70.93;97252.19;5074564;28;20044;-71
2021/03/24 03:13:00;;;;;;;15.13;10.02;;;;;;;-1.08;70.63;97248.91;5074593;28;20487;-71
2021/03/24 03:15:31;;;;;;;12.38;9.73;;;;;;;-1.09;70.94;97239.56;5074705;28;20040;-72
2021/03/24 03:18:18;;;;;;;13.88;10.13;;;;;;;-1.09;71.02;97243.88;5074871;28;20487;-71
2021/03/24 03:20:47;;;;;;;13.88;9.75;;;;;;;-1.12;70.54;97244.97;5065191;28;20048;-71
2021/03/24 03:23:17;;;;;;;13.27;9.10;;;;;;;-1.11;70.79;97251.75;5074466;28;20040;-71
2021/03/24 03:25:51;;;;;;;16.85;10.02;;;;;;;-1.12;70.91;97250.09;5074663;28;20411;-71
2021/03/24 03:28:18;;;;;;;15.13;10.07;;;;;;;-1.13;70.87;97247.69;5072842;28;20055;-71
2021/03/24 03:30:52;;;;;;;15.35;10.15;;;;;;;-1.13;71.16;97245.09;5073172;28;20037;-71
2021/03/24 03:33:22;;;;;;;;;;;;;;;-1.17;71.61;97238.56;5074590;28;20111;-71
2021/03/24 03:35:52;;;;;;;15.10;9.82;;;;;;;-1.23;71.21;97240.69;5074659;28;19912;-73
2021/03/24 03:38:22;;;;;;;15.00;10.75;;;;;;;-1.24;70.95;97238.22;5073815;28;20119;-71
2021/03/24 03:40:49;;;;;;;16.25;10.23;;;;;;;-1.27;71.03;97236.72;5072860;28;20468;-72
2021/03/24 03:43:17;;;;;;;14.10;9.80;;;;;;;-1.28;71.19;97235.09;5064867;28;20048;-71
2021/03/24 03:45:47;;;;;;;13.43;9.70;;;;;;;-1.29;70.95;97235.22;5074069;28;20036;-71
2021/03/24 03:48:17;;;;;;;17.02;11.13;;;;;;;-1.30;70.76;97228.44;5074275;28;20040;-71
2021/03/24 03:50:46;;;;;;;15.95;8.85;;;;;;;-1.30;70.96;97233.56;5073759;28;20031;-72
2021/03/24 03:53:41;;;;;;;15.95;9.90;;;;;;;-1.32;71.11;97232.91;5073423;28;20465;-71
2021/03/24 03:56:21;;;;;;;11.98;9.05;;;;;;;-1.32;71.11;97236.28;5074056;28;20040;-71
2021/03/24 03:59:12;;;;;;;14.95;9.82;;;;;;;-1.30;71.62;97241.28;5074036;28;20028;-71
2021/03/24 04:01:42;;;;;;;14.02;10.20;;;;;;;-1.32;71.38;97235.47;5074130;28;20028;-72
2021/03/24 04:04:18;;;;;;;12.75;9.68;;;;;;;-1.35;71.19;97235.72;5073971;28;20028;-71
2021/03/24 04:06:56;;;;;;;15.82;10.15;;;;;;;-1.39;71.53;97235.13;5073599;28;20041;-71
2021/03/24 04:09:23;;;;;;;15.32;10.27;;;;;;;-1.40;70.98;97227.56;5073421;28;20509;-71
2021/03/24 04:11:52;;;;;;;15.38;9.43;;;;;;;-1.42;71.22;97232.81;5073410;28;20040;-71
2021/03/24 04:14:22;;;;;;;13.55;9.98;;;;;;;-1.42;71.15;97229.44;5073468;28;20051;-71
2021/03/24 04:16:51;;;;;;;15.15;9.18;;;;;;;-1.42;71.28;97234.59;5073161;28;20044;-71
2021/03/24 04:19:23;;;;;;;13.98;10.35;;;;;;;-1.45;71.31;97223.59;5073822;28;20040;-71
2021/03/24 04:21:55;;;;;;;16.67;11.07;;;;;;;-1.44;71.37;97237.28;5059778;28;20040;-71
2021/03/24 04:24:26;;;;;;;17.75;10.30;;;;;;;-1.45;71.63;97233.91;5073520;28;20495;-71
2021/03/24 04:26:59;;;;;;;15.05;10.77;;;;;;;-1.50;71.70;97224.91;5073510;28;20041;-71
2021/03/24 04:29:32;;;;;;;14.65;9.95;;;;;;;-1.52;71.83;97225.00;5073403;28;20516;-71
2021/03/24 04:32:01;;;;;;;17.05;10.50;;;;;;;-1.51;72.19;97218.09;5073696;28;20041;-71
2021/03/24 04:34:29;;;;;;;13.27;9.68;;;;;;;-1.49;72.04;97216.22;5073457;28;20043;-71
2021/03/24 04:37:06;;;;;;;16.15;11.02;;;;;;;-1.45;72.68;97222.75;5072641;28;20122;-71
2021/03/24 04:39:46;;;;;;;16.35;10.50;;;;;;;-1.46;72.42;97221.16;5073851;28;20036;-71
2021/03/24 04:42:18;;;;;;;17.98;11.35;;;;;;;-1.44;71.91;97224.41;5073322;28;20043;-71
2021/03/24 04:44:50;;;;;;;16.48;11.85;;;;;;;-1.43;71.98;97228.59;5073178;28;20043;-71
2021/03/24 04:47:22;;;;;;;21.33;13.10;;;;;;;-1.44;72.20;97227.78;5073027;28;20047;-72
2021/03/24 04:50:33;;;;;;;18.90;11.93;;;;;;;-1.43;72.90;97226.03;5073865;28;20036;-71
2021/03/24 04:53:02;;;;;;;17.70;12.23;;;;;;;-1.44;72.13;97226.97;5048892;28;20067;-71
2021/03/24 04:55:30;;;;;;;17.23;11.60;;;;;;;-1.46;71.96;97229.66;5073068;28;20055;-72
2021/03/24 04:58:00;;;;;;;15.27;10.80;;;;;;;-1.50;71.84;97222.31;5062041;28;20041;-71
2021/03/24 05:00:35;;;;;;;15.23;10.48;;;;;;;-1.51;71.99;97218.94;5072869;28;20043;-71
2021/03/24 05:03:12;;;;;;;18.48;10.50;;;;;;;-1.54;72.29;97226.91;5073543;28;20059;-71
2021/03/24 05:05:45;;;;;;;18.67;10.27;;;;;;;-1.55;71.83;97230.41;5073271;28;20052;-71
2021/03/24 05:08:24;;;;;;;15.52;9.98;;;;;;;-1.56;71.95;97222.81;5072990;28;20040;-71
2021/03/24 05:10:58;;;;;;;14.55;9.98;;;;;;;-1.57;71.84;97223.78;5073140;28;20079;-71
2021/03/24 05:13:33;;;;;;;15.45;10.52;;;;;;;-1.58;72.14;97222.94;5072640;28;20049;-71
2021/03/24 05:16:03;;;;;;;17.85;11.23;;;;;;;-1.56;72.29;97230.53;5072529;28;20477;-71
2021/03/24 05:18:30;;;;;;;18.75;11.00;;;;;;;-1.56;72.15;97231.34;5074970;28;20040;-71
2021/03/24 05:21:02;;;;;;;16.13;11.32;;;;;;;-1.54;72.29;97237.19;5075417;28;20036;-71
2021/03/24 05:23:29;;;;;;;21.20;13.63;;;;;;;-1.53;72.37;97232.88;5076727;28;20029;-71
2021/03/24 05:26:12;;;;;;;16.80;11.55;;;;;;;-1.53;73.08;97236.25;5076645;28;20041;-72
2021/03/24 05:28:47;;;;;;;20.85;13.07;;;;;;;-1.52;72.42;97240.44;5077102;28;20043;-71
2021/03/24 05:31:17;;;;;;;17.92;12.13;;;;;;;-1.51;72.52;97234.38;5076689;28;20045;-71
2021/03/24 05:33:48;;;;;;;19.95;11.93;;;;;;;-1.48;72.63;97249.56;5076532;28;20029;-71
2021/03/24 05:36:35;;;;;;;16.10;11.77;;;;;;;-1.44;73.30;97247.56;5076953;28;20029;-71
2021/03/24 05:39:21;;;;;;;18.75;12.35;;;;;;;-1.39;73.10;97255.72;5076639;28;20404;-71
2021/03/24 05:42:18;;;;;;;16.45;11.82;;;;;;;-1.37;73.23;97253.03;5076319;28;20035;-71
2021/03/24 05:44:47;;;;;;;17.85;12.07;;;;;;;-1.35;72.62;97257.09;5076734;28;20041;-71
2021/03/24 05:47:16;;;;;;;17.05;11.88;;;;;;;-1.33;72.25;97257.81;5076352;28;20044;-72
2021/03/24 05:50:03;;;;;;;16.35;11.55;;;;;;;-1.32;72.64;97248.34;5075919;28;20044;-71
2021/03/24 05:52:46;;;;;;;16.92;11.55;;;;;;;-1.23;72.28;97248.41;5076176;28;20043;-71
2021/03/24 05:55:39;;;;;;;17.05;11.35;;;;;;;-0.74;72.61;97256.44;5076386;28;20067;-72
2021/03/24 05:58:27;;;;;;;18.35;11.48;;;;;;;0.08;71.63;97252.97;5076290;28;20036;-71
2021/03/24 06:01:02;;;;;;;17.50;10.65;;;;;;;0.84;71.85;97247.25;5063884;28;20039;-71
2021/03/24 06:03:50;;;;;;;17.23;11.10;;;;;;;1.60;69.25;97242.03;5075984;28;20044;-72
2021/03/24 06:06:39;;;;;;;15.02;10.68;;;;;;;2.34;68.07;97242.91;5076037;28;20376;-72
2021/03/24 06:09:05;;;;;;;18.13;11.30;;;;;;;2.93;70.10;97245.84;5076388;28;20040;-72
2021/03/24 06:11:58;;;;;;;18.00;11.57;;;;;;;3.56;67.29;97238.81;5075894;28;20032;-72
2021/03/24 06:14:27;;;;;;;16.27;11.05;;;;;;;4.19;67.83;97248.00;5075656;28;20044;-72
2021/03/24 06:16:56;;;;;;;17.63;12.60;;;;;;;4.67;66.38;97239.50;5075760;28;20044;-72
2021/03/24 06:19:41;;;;;;;16.50;11.80;;;;;;;5.16;62.43;97222.28;5075437;28;20044;-72
2021/03/24 06:22:32;;;;;;;15.65;11.40;;;;;;;5.60;60.63;97211.47;5075601;28;20032;-72
2021/03/24 06:25:10;;;;;;;27.63;19.98;;;;;;;5.92;61.60;97220.16;5075651;28;20033;-71
2021/03/24 06:27:43;;;;;;;18.70;11.95;;;;;;;6.30;61.75;97221.97;5075038;28;20045;-71
2021/03/24 06:30:48;;;;;;;17.25;11.45;;;;;;;6.65;56.94;97180.66;5075264;28;20025;-72
2021/03/24 06:33:14;;;;;;;19.20;12.65;;;;;;;6.82;62.04;97233.50;5075481;28;20065;-72
2021/03/24 06:36:05;;;;;;;21.58;15.20;;;;;;;6.94;58.63;97210.44;5075533;28;20060;-71
2021/03/24 06:38:41;;;;;;;17.38;11.73;;;;;;;7.02;57.33;97199.13;5075463;28;20044;-71
2021/03/24 06:41:44;;;;;;;15.38;11.18;;;;;;;7.25;56.26;97180.81;5074840;28;20036;-71
2021/03/24 06:44:19;;;;;;;16.55;10.50;;;;;;;7.58;56.53;97189.13;5075160;28;20039;-71
2021/03/24 06:46:55;;;;;;;16.05;10.27;;;;;;;7.89;59.70;97216.81;5075082;28;20071;-71
2021/03/24 06:49:32;;;;;;;16.08;11.35;;;;;;;8.24;59.05;97215.22;5075255;28;20027;-71
2021/03/24 06:52:36;;;;;;;16.27;10.20;;;;;;;8.56;53.44;97160.91;5075206;28;20362;-71
2021/03/24 06:55:20;;;;;;;13.38;10.38;;;;;;;8.87;52.75;97152.72;5073885;28;20041;-71
2021/03/24 06:57:59;;;;;;;13.88;9.75;;;;;;;8.99;54.55;97184.41;5061774;28;20040;-71
2021/03/24 07:00:40;;;;;;;11.32;9.82;;;;;;;9.07;52.61;97175.59;5074972;28;20056;-71
2021/03/24 07:03:37;;;;;;;12.88;9.90;;;;;;;9.12;52.61;97179.28;5075107;28;20036;-71
2021/03/24 07:06:06;;;;;;;45.05;31.27;;;;;;;9.01;54.48;97192.88;5075243;28;20044;-71
2021/03/24 07:08:49;;;;;;;23.70;16.35;;;;;;;8.98;48.63;97146.16;5074585;28;20044;-71
2021/03/24 07:11:22;;;;;;;53.33;36.00;;;;;;;8.98;51.76;97174.94;5064775;28;20035;-71
2021/03/24 07:14:12;;;;;;;17.45;12.25;;;;;;;9.09;50.98;97165.75;5074719;28;20040;-71
2021/03/24 07:16:53;;;;;;;16.52;13.40;;;;;;;9.10;52.86;97181.28;5074155;28;20063;-72
2021/03/24 07:19:46;;;;;;;14.90;11.82;;;;;;;8.89;48.28;97144.69;5074927;28;20111;-71
2021/03/24 07:22:29;;;;;;;17.90;14.02;;;;;;;8.70;50.46;97161.84;5066967;28;20048;-71
2021/03/24 07:25:26;;;;;;;42.63;38.50;;;;;;;8.53;49.54;97151.63;5074781;28;20366;-72
2021/03/24 07:28:23;;;;;;;13.05;10.40;;;;;;;8.57;48.62;97146.00;5074778;28;20036;-71
2021/03/24 07:31:01;;;;;;;13.95;11.00;;;;;;;8.88;48.25;97143.06;5064527;28;20039;-71
2021/03/24 07:33:53;;;;;;;13.63;11.02;;;;;;;8.98;49.16;97159.25;5074209;28;20028;-71
2021/03/24 07:36:41;;;;;;;14.93;10.88;;;;;;;8.99;48.57;97152.19;5074356;28;20487;-72
2021/03/24 07:39:07;;;;;;;14.32;10.88;;;;;;;9.05;50.54;97172.38;5073973;28;20025;-71
2021/03/24 07:41:51;;;;;;;17.38;11.38;;;;;;;9.05;48.80;97160.13;5073556;28;20046;-71
2021/03/24 07:44:52;;;;;;;18.48;11.05;;;;;;;9.01;48.56;97151.03;5073818;28;20107;-71
2021/03/24 07:48:01;;;;;;;15.35;11.23;;;;;;;9.30;48.24;97151.81;5074080;28;20040;-71
2021/03/24 07:50:46;;;;;;;15.63;12.30;;;;;;;9.46;49.50;97164.59;5068276;28;20043;-71
2021/03/24 07:53:51;;;;;;;17.27;11.73;;;;;;;9.53;47.83;97151.53;5073797;28;20029;-71
2021/03/24 07:56:35;;;;;;;18.70;10.98;;;;;;;9.82;47.75;97147.84;5066153;28;20055;-71
2021/03/24 07:59:14;;;;;;;16.35;11.98;;;;;;;9.80;46.00;97123.66;5073761;28;20484;-71
2021/03/24 08:02:03;;;;;;;16.25;12.52;;;;;;;9.76;46.96;97135.53;5073825;28;20465;-71
2021/03/24 08:04:48;;;;;;;16.00;11.05;;;;;;;9.87;48.66;97163.78;5073652;28;20044;-71
2021/03/24 08:07:42;;;;;;;14.25;11.77;;;;;;;9.87;46.61;97158.56;5073367;28;20052;-71
2021/03/24 08:10:35;;;;;;;15.60;11.43;;;;;;;9.97;46.30;97184.38;5073607;28;20037;-71
2021/03/24 08:13:20;;;;;;;16.30;12.15;;;;;;;9.96;46.79;97212.41;5057365;28;20045;-72
2021/03/24 08:15:57;;;;;;;18.05;12.30;;;;;;;10.12;45.40;97205.19;5073274;28;20048;-72
2021/03/24 08:18:48;;;;;;;13.75;11.43;;;;;;;10.35;46.10;97213.59;5073306;28;20040;-71
2021/03/24 08:21:36;;;;;;;14.10;11.43;;;;;;;10.71;45.89;97219.53;5073782;28;20028;-71
2021/03/24 08:24:34;;;;;;;14.95;13.07;;;;;;;10.90;45.83;97226.63;5073399;28;20392;-71
2021/03/24 08:27:06;;;;;;;15.35;11.05;;;;;;;10.72;46.01;97235.06;5064305;28;20481;-71
2021/03/24 08:29:32;;;;;;;14.45;11.13;;;;;;;10.80;46.55;97235.88;5073702;28;20037;-71
2021/03/24 08:32:21;;;;;;;16.23;12.10;;;;;;;10.46;46.03;97229.75;5073283;28;20035;-71
2021/03/24 08:35:15;;;;;;;18.13;12.82;;;;;;;10.20;45.21;97228.63;5073335;28;20047;-71
2021/03/24 08:38:01;;;;;;;13.63;11.23;;;;;;;10.03;45.52;97224.72;5057947;28;20041;-71
2021/03/24 08:41:09;;;;;;;15.88;12.50;;;;;;;10.02;46.51;97228.38;5073535;28;20039;-71
2021/03/24 08:43:50;;;;;;;15.73;11.85;;;;;;;9.96;46.22;97232.56;5052578;28;20420;-71
2021/03/24 08:46:40;;;;;;;30.63;27.02;;;;;;;10.04;45.96;97226.34;5073111;28;20366;-71
2021/03/24 08:49:19;;;;;;;17.67;15.13;;;;;;;9.85;46.53;97223.44;5072790;28;20039;-72
2021/03/24 08:52:15;;;;;;;17.95;12.00;;;;;;;10.00;50.95;97235.59;5073133;28;20043;-71
2021/03/24 08:54:50;;;;;;;16.48;12.25;;;;;;;10.81;46.91;97219.94;5067363;28;20043;-71
2021/03/24 08:57:28;;;;;;;17.13;12.25;;;;;;;10.96;46.35;97219.72;5073283;28;20043;-72
2021/03/24 09:00:10;;;;;;;17.52;12.43;;;;;;;10.92;46.01;97213.31;5072934;28;20044;-72
2021/03/24 09:02:43;;;;;;;18.88;12.15;;;;;;;10.86;46.35;97216.72;5073368;28;20036;-72
2021/03/24 09:05:26;;;;;;;18.23;12.73;;;;;;;10.96;46.62;97211.88;5073269;28;20377;-72
2021/03/24 09:08:14;;;;;;;17.15;12.43;;;;;;;11.24;45.97;97208.25;5073004;28;20052;-72
2021/03/24 09:10:50;;;;;;;15.65;11.65;;;;;;;11.44;45.68;97210.84;5073504;28;20036;-72
2021/03/24 09:13:44;;;;;;;19.58;13.70;;;;;;;11.32;45.71;97210.69;5072852;28;20040;-72
2021/03/24 09:16:48;;;;;;;17.60;12.83;;;;;;;11.20;46.05;97213.09;5072849;28;20040;-72
2021/03/24 09:19:24;;;;;;;18.55;13.52;;;;;;;11.06;46.23;97217.53;5073081;28;20291;-72
2021/03/24 09:22:02;;;;;;;17.80;13.32;;;;;;;10.90;46.20;97223.19;5072728;28;20024;-72
2021/03/24 09:24:37;;;;;;;15.80;13.23;;;;;;;10.73;46.53;97214.88;5072814;28;20032;-72
2021/03/24 09:27:22;;;;;;;17.30;13.32;;;;;;;10.70;47.08;97220.53;5072812;28;20036;-72
2021/03/24 09:30:17;;;;;;;16.45;13.25;;;;;;;10.66;47.05;97224.56;5073042;28;20040;-72
2021/03/24 09:33:04;;;;;;;15.82;13.00;;;;;;;10.88;47.21;97225.22;5064147;28;20044;-72
2021/03/24 09:35:48;;;;;;;17.33;12.27;;;;;;;10.95;46.46;97207.63;5073194;28;20028;-72
2021/03/24 09:38:20;;;;;;;16.67;11.80;;;;;;;10.95;46.55;97207.63;5073129;28;20049;-72
2021/03/24 09:40:52;;;;;;;20.15;13.27;;;;;;;11.02;46.67;97208.44;5072512;28;20473;-72
2021/03/24 09:43:35;;;;;;;14.50;11.88;;;;;;;11.01;46.03;97204.22;5072534;28;20016;-72
2021/03/24 09:46:31;;;;;;;15.48;12.32;;;;;;;10.90;46.39;97210.06;5072959;28;20032;-72
2021/03/24 09:49:13;;;;;;;16.80;12.75;;;;;;;10.92;47.18;97208.84;5066458;28;20055;-72
2021/03/24 09:51:47;;;;;;;16.63;12.75;;;;;;;10.85;47.75;97205.41;5072682;28;20059;-72
2021/03/24 09:54:27;;;;;;;17.75;12.98;;;;;;;10.56;48.30;97202.16;5072292;28;20045;-72
2021/03/24 09:57:16;;;;;;;16.85;12.15;;;;;;;10.64;48.61;97210.81;5072945;28;20033;-72
2021/03/24 09:59:55;;;;;;;16.58;13.07;;;;;;;10.81;48.00;97212.06;5063734;28;20462;-72
2021/03/24 10:02:34;;;;;;;13.65;12.10;;;;;;;10.64;47.65;97195.09;5062006;28;20043;-72
2021/03/24 10:05:07;;;;;;;17.35;12.27;;;;;;;10.45;47.98;97196.66;5075035;28;20029;-72
2021/03/24 10:07:41;;;;;;;18.33;12.23;;;;;;;10.42;49.02;97197.06;5076738;28;20393;-72
2021/03/24 10:10:07;;;;;;;14.63;11.40;;;;;;;10.40;48.62;97193.84;5076243;28;20044;-72
2021/03/24 10:12:41;;;;;;;8.27;7.10;;;;;;;10.51;52.34;97212.41;5075476;28;20037;-72
2021/03/24 10:15:11;;;;;;;10.25;8.18;;;;;;;11.22;51.34;97207.66;5075789;28;20036;-72
2021/03/24 10:17:51;;;;;;;14.60;12.30;;;;;;;11.70;48.11;97197.66;5075945;28;20048;-72
2021/03/24 10:20:35;;;;;;;15.30;12.95;;;;;;;11.61;46.89;97184.94;5076060;28;20500;-72
2021/03/24 10:23:08;;;;;;;15.45;12.68;;;;;;;11.44;48.33;97195.09;5076098;28;20040;-72
2021/03/24 10:25:41;;;;;;;16.92;11.88;;;;;;;11.51;48.39;97188.03;5075914;28;20044;-72
2021/03/24 10:28:13;;;;;;;13.75;11.60;;;;;;;11.72;48.05;97185.13;5074542;28;20032;-72
2021/03/24 10:30:53;;;;;;;15.15;12.13;;;;;;;11.93;48.33;97184.09;5075614;28;20051;-73
2021/03/24 10:33:43;;;;;;;17.15;12.75;;;;;;;11.91;45.12;97167.72;5075590;28;20461;-72
2021/03/24 10:36:34;;;;;;;16.55;11.57;;;;;;;11.97;46.57;97176.59;5076051;28;20036;-72
2021/03/24 10:39:13;;;;;;;14.13;11.27;;;;;;;11.91;46.92;97167.72;5063372;28;20048;-72
2021/03/24 10:41:46;;;;;;;13.82;11.85;;;;;;;12.09;47.26;97168.84;5075369;28;20037;-72
2021/03/24 10:44:37;;;;;;;15.13;12.02;;;;;;;12.31;45.31;97157.00;5075417;28;20032;-73
2021/03/24 10:47:31;;;;;;;16.20;11.85;;;;;;;12.37;45.56;97158.00;5063834;28;20037;-72
2021/03/24 10:50:22;;;;;;;15.68;12.07;;;;;;;12.42;46.04;97163.41;5075632;28;20024;-72
2021/03/24 10:53:20;;;;;;;14.40;11.43;;;;;;;12.52;44.38;97157.69;5063987;28;20040;-72
2021/03/24 10:56:03;;;;;;;12.48;11.15;;;;;;;12.66;44.55;97153.13;5066216;28;20404;-72
2021/03/24 10:58:41;;;;;;;14.25;11.30;;;;;;;12.89;44.09;97145.47;5067033;28;20040;-72
2021/03/24 11:01:40;;;;;;;13.02;11.15;;;;;;;13.33;42.93;97138.44;5075285;28;20511;-72
2021/03/24 11:04:18;;;;;;;13.52;10.05;;;;;;;13.46;45.21;97142.75;5066167;28;20044;-72
2021/03/24 11:07:03;;;;;;;13.75;10.13;;;;;;;13.73;43.41;97140.63;5061012;28;20052;-72
2021/03/24 11:09:47;;;;;;;13.25;10.50;;;;;;;13.79;42.78;97133.66;5075393;28;20028;-72
2021/03/24 11:12:17;;;;;;;12.30;9.85;;;;;;;13.94;43.10;97133.28;5075269;28;20043;-72
2021/03/24 11:14:59;;;;;;;11.60;8.65;;;;;;;14.09;40.64;97117.88;5073769;28;20052;-72
2021/03/24 11:17:32;;;;;;;13.02;8.18;;;;;;;14.25;41.81;97118.28;5074310;28;20048;-72
2021/03/24 11:20:04;;;;;;;8.95;7.18;;;;;;;14.47;40.33;97122.00;5074571;28;20040;-72
2021/03/24 11:22:33;;;;;;;8.93;7.57;;;;;;;14.66;41.17;97117.50;5075059;28;20461;-72
2021/03/24 11:25:04;;;;;;;8.40;6.65;;;;;;;14.83;39.78;97138.75;5074425;28;20479;-72
2021/03/24 11:27:39;;;;;;;6.82;6.15;;;;;;;15.11;37.79;97143.38;5074721;28;20031;-72
2021/03/24 11:30:21;;;;;;;9.93;6.57;;;;;;;15.27;37.52;97141.88;5074442;28;20500;-72
2021/03/24 11:32:50;;;;;;;8.50;7.45;;;;;;;15.45;37.37;97151.50;5073827;28;20048;-72
2021/03/24 11:35:26;;;;;;;9.52;7.50;;;;;;;15.51;36.70;97147.94;5074349;28;20380;-72
2021/03/24 11:38:05;;;;;;;8.57;7.78;;;;;;;15.49;35.61;97142.06;5074189;28;20040;-72
2021/03/24 11:40:44;;;;;;;6.90;6.25;;;;;;;15.53;35.42;97134.50;5064499;28;20036;-72
2021/03/24 11:43:24;;;;;;;7.00;6.28;;;;;;;15.62;34.44;97141.03;5073909;28;20043;-72
2021/03/24 11:46:16;;;;;;;6.22;5.20;;;;;;;15.66;34.95;97141.38;5074549;28;20040;-72
2021/03/24 11:49:29;;;;;;;6.35;5.68;;;;;;;15.88;33.62;97137.09;5073755;28;20037;-72
2021/03/24 11:52:15;;;;;;;6.35;5.60;;;;;;;16.06;33.41;97137.97;5070008;28;20477;-72
2021/03/24 11:54:48;;;;;;;6.20;5.60;;;;;;;16.15;35.07;97144.50;5073770;28;20055;-72
2021/03/24 11:57:42;;;;;;;7.40;6.35;;;;;;;16.31;33.59;97134.97;5074289;28;20036;-72
2021/03/24 12:00:32;;;;;;;8.10;7.03;;;;;;;16.46;31.52;97127.28;5073706;28;20384;-72
2021/03/24 12:03:05;;;;;;;8.50;6.78;;;;;;;16.49;33.17;97141.94;5073897;28;20465;-72
2021/03/24 12:05:47;;;;;;;6.70;5.35;;;;;;;16.46;33.57;97129.16;5073341;28;20040;-72
2021/03/24 12:08:20;;;;;;;7.95;6.07;;;;;;;16.37;33.18;97124.22;5073580;28;20037;-72